Terminal Aerodrome Forecast
Issued by NWS

Home | Current Version | Previous Version | Graphics & Text | Print | Product List | Glossary On
Versions: 1 2 3 4 5 6 7 8 9 10 11 12 13 14
000
FTUS43 KBIS 301731
TAFMOT
TAF
KMOT 301731Z 3018/3118 12015KT P6SM SCT100
     FM302000 11010KT P6SM BKN150
     FM310600 11007KT P6SM OVC080
     FM311200 10008KT P6SM SCT015 OVC040
     FM311500 13012KT P6SM VCSH SCT015 BKN025 OVC040=

USA.gov is the U.S. government's official web portal to all federal, state and local government web resources and services.